Time;durP1;ratioP1;P1;durP2;ratioP2;P2;SDS_P1;SDS_P2;PMS_P1;PMS_P2;Temp;Humidity;BMP_temperature;BMP_pressure;BME280_temperature;BME280_humidity;BME280_pressure;Samples;Min_cycle;Max_cycle;Signal;HPM_P1;HPM_P2
2022/06/18 00:01:59;;;;;;;0.00;0.00;;;25.00;59.20;;;;;;4158963;28;20137;-66
2022/06/18 00:04:24;;;;;;;0.10;0.10;;;25.00;59.20;;;;;;4159527;28;20639;-65
2022/06/18 00:06:50;;;;;;;9.07;1.08;;;25.00;59.30;;;;;;4157910;28;20427;-65
2022/06/18 00:09:13;;;;;;;0.00;0.00;;;25.00;59.20;;;;;;4159177;28;20065;-65
2022/06/18 00:14:15;;;;;;;0.47;0.47;;;25.00;59.30;;;;;;4195174;28;20047;-65
2022/06/18 00:16:37;;;;;;;0.00;0.00;;;25.00;59.30;;;;;;4195138;28;20111;-66
2022/06/18 00:19:00;;;;;;;0.00;0.00;;;24.90;59.30;;;;;;4194743;28;20075;-65
2022/06/18 00:21:25;;;;;;;0.15;0.15;;;24.90;59.30;;;;;;4194644;28;20055;-65
2022/06/18 00:23:48;;;;;;;0.00;0.00;;;24.90;59.40;;;;;;4194717;28;20082;-65
2022/06/18 00:26:11;;;;;;;0.00;0.00;;;24.90;59.40;;;;;;4194675;28;20131;-65
2022/06/18 00:28:34;;;;;;;0.00;0.00;;;24.90;59.40;;;;;;4194578;28;20102;-65
2022/06/18 00:30:56;;;;;;;0.28;0.28;;;24.90;59.50;;;;;;4193404;28;20055;-65
2022/06/18 00:33:19;;;;;;;12.05;2.72;;;24.90;59.50;;;;;;4193116;28;20043;-65
2022/06/18 00:35:44;;;;;;;0.00;0.00;;;24.90;59.50;;;;;;4194841;28;20054;-65
2022/06/18 00:38:08;;;;;;;1.42;0.10;;;24.90;59.50;;;;;;4178932;28;20048;-65
2022/06/18 00:40:34;;;;;;;0.00;0.00;;;24.90;59.50;;;;;;4191151;28;20574;-65
2022/06/18 00:42:59;;;;;;;0.00;0.00;;;24.90;59.50;;;;;;4192912;28;20142;-65
2022/06/18 00:45:26;;;;;;;0.00;0.00;;;24.90;59.50;;;;;;4194778;28;20056;-65
2022/06/18 00:47:55;;;;;;;0.00;0.00;;;24.90;59.50;;;;;;4193174;28;20059;-65
2022/06/18 00:50:24;;;;;;;0.40;0.40;;;24.80;59.50;;;;;;4160152;28;20049;-65
2022/06/18 00:52:52;;;;;;;0.00;0.00;;;24.80;59.60;;;;;;4161025;28;20049;-66
2022/06/18 00:55:18;;;;;;;0.00;0.00;;;24.90;59.70;;;;;;4159825;28;20041;-65
2022/06/18 00:57:46;;;;;;;0.00;0.00;;;24.90;59.70;;;;;;4159310;28;20071;-66
2022/06/18 01:00:14;;;;;;;1.85;0.55;;;24.80;59.70;;;;;;4193488;28;20060;-65
2022/06/18 01:02:39;;;;;;;0.00;0.00;;;24.80;59.70;;;;;;4192798;28;20059;-66
2022/06/18 01:05:01;;;;;;;0.00;0.00;;;24.80;59.70;;;;;;4194397;28;20455;-66
2022/06/18 01:07:29;;;;;;;0.00;0.00;;;24.80;59.70;;;;;;4194524;28;20075;-66
2022/06/18 01:09:54;;;;;;;0.00;0.00;;;24.80;59.80;;;;;;4192367;28;20075;-66
2022/06/18 01:12:18;;;;;;;0.00;0.00;;;24.80;60.60;;;;;;4191291;28;20160;-66
2022/06/18 01:14:40;;;;;;;0.10;0.10;;;24.80;59.70;;;;;;4192903;28;20087;-66
2022/06/18 01:17:06;;;;;;;0.00;0.00;;;24.80;59.80;;;;;;4192862;28;20110;-66
2022/06/18 01:19:31;;;;;;;0.13;0.13;;;24.70;59.70;;;;;;4192668;28;20071;-66
2022/06/18 01:22:02;;;;;;;0.20;0.20;;;24.80;59.90;;;;;;4193921;28;20044;-66
2022/06/18 01:24:33;;;;;;;0.70;0.63;;;24.70;59.80;;;;;;4191194;28;20503;-66
2022/06/18 01:26:57;;;;;;;0.20;0.20;;;24.70;59.80;;;;;;4178248;28;20456;-66
2022/06/18 01:29:19;;;;;;;0.00;0.00;;;24.70;59.80;;;;;;4192042;28;20048;-66
2022/06/18 01:31:42;;;;;;;0.00;0.00;;;24.70;59.80;;;;;;4192608;28;20131;-66
2022/06/18 01:34:05;;;;;;;0.73;0.73;;;24.70;59.90;;;;;;4192556;28;20045;-66
2022/06/18 01:36:34;;;;;;;0.00;0.00;;;24.70;59.90;;;;;;4192415;28;20157;-66
2022/06/18 01:38:57;;;;;;;0.00;0.00;;;24.70;59.90;;;;;;4192481;28;20060;-66
2022/06/18 01:44:11;;;;;;;0.00;0.00;;;24.70;60.00;;;;;;4177685;28;20447;-66
2022/06/18 01:46:34;;;;;;;0.20;0.20;;;24.70;60.00;;;;;;4177710;28;20443;-66
2022/06/18 01:48:59;;;;;;;0.00;0.00;;;24.70;60.00;;;;;;4193056;28;20575;-65
2022/06/18 01:51:27;;;;;;;0.15;0.15;;;24.70;60.10;;;;;;4191988;28;20051;-65
2022/06/18 01:53:52;;;;;;;2.10;2.00;;;24.70;60.20;;;;;;4193640;28;20047;-65
2022/06/18 01:56:17;;;;;;;0.15;0.15;;;24.70;60.20;;;;;;4191684;28;20482;-65
2022/06/18 01:58:45;;;;;;;0.00;0.00;;;24.70;60.20;;;;;;4191245;28;20094;-66
2022/06/18 02:01:19;;;;;;;0.20;0.20;;;24.60;60.10;;;;;;4191768;28;20059;-65
2022/06/18 02:03:42;;;;;;;0.32;0.32;;;24.60;60.20;;;;;;4191673;28;20048;-65
2022/06/18 02:06:06;;;;;;;8.45;1.20;;;24.60;60.20;;;;;;4192932;28;20055;-66
2022/06/18 02:08:28;;;;;;;0.00;0.00;;;24.60;60.20;;;;;;4191781;28;20463;-65
2022/06/18 02:10:53;;;;;;;0.00;0.00;;;24.60;60.20;;;;;;4192133;28;20044;-65
2022/06/18 02:13:16;;;;;;;0.00;0.00;;;24.60;60.30;;;;;;4193224;28;20097;-65
2022/06/18 02:15:42;;;;;;;1.08;0.35;;;24.60;60.30;;;;;;4192919;28;20135;-64
2022/06/18 02:18:07;;;;;;;0.00;0.00;;;24.60;60.30;;;;;;4190814;28;20049;-66
2022/06/18 02:20:31;;;;;;;0.00;0.00;;;24.60;60.30;;;;;;4191744;28;20183;-65
2022/06/18 02:22:57;;;;;;;0.20;0.20;;;24.60;60.50;;;;;;4191808;28;20051;-65
2022/06/18 02:25:21;;;;;;;0.50;0.50;;;24.60;60.40;;;;;;4192553;28;20102;-66
2022/06/18 02:27:44;;;;;;;0.00;0.00;;;24.60;60.50;;;;;;4193266;28;20122;-65
2022/06/18 02:30:12;;;;;;;0.20;0.20;;;24.60;60.50;;;;;;4193177;28;20044;-66
2022/06/18 02:32:42;;;;;;;0.50;0.50;;;24.50;60.50;;;;;;4193139;28;20045;-66
2022/06/18 02:35:12;;;;;;;0.25;0.25;;;24.50;60.50;;;;;;4190933;28;20175;-66
2022/06/18 02:37:35;;;;;;;0.05;0.05;;;24.50;60.60;;;;;;4157330;28;20045;-66
2022/06/18 02:40:00;;;;;;;3.83;2.63;;;24.50;60.60;;;;;;4159365;28;20051;-66
2022/06/18 02:42:22;;;;;;;0.10;0.10;;;24.50;60.60;;;;;;4144647;28;20049;-66
2022/06/18 02:44:46;;;;;;;0.10;0.10;;;24.50;60.70;;;;;;4172031;28;20037;-66
2022/06/18 02:47:11;;;;;;;0.38;0.38;;;24.50;60.70;;;;;;4190910;28;20040;-67
2022/06/18 02:49:38;;;;;;;0.00;0.00;;;24.50;60.70;;;;;;4192813;28;20105;-66
2022/06/18 02:52:02;;;;;;;0.00;0.00;;;24.50;60.70;;;;;;4191188;28;20074;-67
2022/06/18 02:54:24;;;;;;;0.10;0.10;;;24.50;60.80;;;;;;4192714;28;20139;-66
2022/06/18 02:56:47;;;;;;;0.00;0.00;;;24.50;60.90;;;;;;4158334;28;20508;-66
2022/06/18 02:59:09;;;;;;;0.00;0.00;;;24.50;60.90;;;;;;4158160;28;20118;-66
2022/06/18 03:01:32;;;;;;;0.00;0.00;;;24.50;60.90;;;;;;4159892;28;20060;-66
2022/06/18 03:03:57;;;;;;;0.00;0.00;;;24.50;61.00;;;;;;4159925;28;20061;-66
2022/06/18 03:06:25;;;;;;;0.38;0.38;;;24.50;61.00;;;;;;4186004;28;20094;-66
2022/06/18 03:08:49;;;;;;;0.00;0.00;;;24.50;61.10;;;;;;4190865;28;20046;-66
2022/06/18 03:13:54;;;;;;;0.10;0.10;;;24.40;61.10;;;;;;4190914;28;20090;-66
2022/06/18 03:16:21;;;;;;;0.00;0.00;;;24.50;61.20;;;;;;4191172;28;20052;-66
2022/06/18 03:18:45;;;;;;;10.95;1.33;;;24.40;61.20;;;;;;4190867;28;20059;-66
2022/06/18 03:21:15;;;;;;;0.90;0.55;;;24.40;61.20;;;;;;4192551;28;20067;-66
2022/06/18 03:23:39;;;;;;;0.05;0.05;;;24.40;61.20;;;;;;4190943;28;20040;-66
2022/06/18 03:26:02;;;;;;;0.00;0.00;;;24.40;61.20;;;;;;4190699;28;20499;-67
2022/06/18 03:28:27;;;;;;;0.05;0.05;;;24.40;61.20;;;;;;4191065;28;20594;-67
2022/06/18 03:30:49;;;;;;;0.00;0.00;;;24.40;61.30;;;;;;4191972;28;20485;-67
2022/06/18 03:33:12;;;;;;;0.00;0.00;;;24.40;61.30;;;;;;4190890;28;20045;-67
2022/06/18 03:35:36;;;;;;;0.52;0.52;;;24.40;61.40;;;;;;4190204;28;20234;-67
2022/06/18 03:37:58;;;;;;;0.00;0.00;;;24.40;61.40;;;;;;4192523;28;20049;-66
2022/06/18 03:40:24;;;;;;;0.00;0.00;;;24.40;61.40;;;;;;4190786;28;20097;-66
2022/06/18 03:42:46;;;;;;;0.08;0.08;;;24.40;61.40;;;;;;4191042;28;20545;-66
2022/06/18 03:45:10;;;;;;;0.00;0.00;;;24.40;61.50;;;;;;4190360;28;20041;-66
2022/06/18 03:47:32;;;;;;;0.10;0.10;;;24.40;61.50;;;;;;4192325;28;20146;-66
2022/06/18 03:49:54;;;;;;;0.05;0.05;;;24.40;61.60;;;;;;4194218;28;20098;-66
2022/06/18 03:52:17;;;;;;;0.00;0.00;;;24.30;61.60;;;;;;4194218;28;20044;-67
2022/06/18 03:54:41;;;;;;;0.00;0.00;;;24.30;61.60;;;;;;4194055;28;20115;-66
2022/06/18 03:57:05;;;;;;;0.00;0.00;;;24.40;61.80;;;;;;4160671;28;20152;-67
2022/06/18 03:59:30;;;;;;;0.03;0.03;;;24.30;61.70;;;;;;4161114;28;20459;-66
2022/06/18 04:01:55;;;;;;;0.00;0.00;;;24.30;61.80;;;;;;4184932;28;20518;-66
2022/06/18 04:04:24;;;;;;;0.00;0.00;;;24.30;61.90;;;;;;4193440;28;20052;-66
2022/06/18 04:06:48;;;;;;;0.00;0.00;;;24.30;61.90;;;;;;4193688;28;20067;-67
2022/06/18 04:09:28;;;;;;;0.70;0.70;;;24.30;62.00;;;;;;4194871;28;20494;-66
2022/06/18 04:11:51;;;;;;;2.00;1.15;;;24.30;63.00;;;;;;4193374;28;20056;-66
2022/06/18 04:14:14;;;;;;;2.03;1.90;;;24.30;62.20;;;;;;4194269;28;20118;-66
2022/06/18 04:17:13;;;;;;;0.13;0.13;;;24.30;62.20;;;;;;4193542;28;20079;-66
2022/06/18 04:19:36;;;;;;;0.00;0.00;;;24.30;62.20;;;;;;4194039;28;20134;-66
2022/06/18 04:22:04;;;;;;;0.10;0.10;;;24.30;62.30;;;;;;4193767;28;20158;-66
2022/06/18 04:24:37;;;;;;;0.10;0.10;;;24.30;62.30;;;;;;4193598;28;20144;-67
2022/06/18 04:27:00;;;;;;;0.10;0.10;;;24.30;62.40;;;;;;4193458;28;20394;-67
2022/06/18 04:29:23;;;;;;;0.00;0.00;;;24.30;62.50;;;;;;4193335;28;20418;-67
2022/06/18 04:31:45;;;;;;;0.00;0.00;;;24.30;62.50;;;;;;4192834;28;20071;-67
2022/06/18 04:34:08;;;;;;;0.00;0.00;;;24.30;62.50;;;;;;4160291;28;20140;-67
2022/06/18 04:36:43;;;;;;;0.00;0.00;;;24.30;62.50;;;;;;4160435;28;20053;-67
2022/06/18 04:39:24;;;;;;;0.10;0.10;;;24.30;62.40;;;;;;4179045;28;20434;-67
2022/06/18 04:42:03;;;;;;;1.05;0.38;;;24.30;62.40;;;;;;4193144;28;20060;-66
2022/06/18 04:44:27;;;;;;;0.00;0.00;;;24.40;62.50;;;;;;4194492;28;20049;-70
2022/06/18 04:47:04;;;;;;;0.13;0.13;;;24.40;62.50;;;;;;4207359;28;20071;-68
2022/06/18 04:49:27;;;;;;;0.20;0.20;;;24.40;63.20;;;;;;4189219;28;20083;-68
2022/06/18 04:51:49;;;;;;;0.03;0.03;;;24.40;63.40;;;;;;4193162;28;20083;-68
2022/06/18 04:54:22;;;;;;;0.00;0.00;;;24.50;63.30;;;;;;4193035;28;20072;-68
2022/06/18 04:56:44;;;;;;;0.28;0.28;;;24.50;63.10;;;;;;4194216;28;20570;-68
2022/06/18 04:59:06;;;;;;;0.00;0.00;;;24.50;63.10;;;;;;4191420;28;20115;-68
2022/06/18 05:01:31;;;;;;;0.00;0.00;;;24.50;63.00;;;;;;4193325;27;20122;-67
2022/06/18 05:04:10;;;;;;;0.52;0.52;;;24.50;63.00;;;;;;4207187;28;20059;-66
2022/06/18 05:06:58;;;;;;;0.00;0.00;;;24.50;63.00;;;;;;4156059;28;20049;-66
2022/06/18 05:09:29;;;;;;;0.55;0.43;;;24.50;63.00;;;;;;4173314;28;20412;-66
2022/06/18 05:12:03;;;;;;;0.00;0.00;;;24.50;63.00;;;;;;4159655;28;20140;-67
2022/06/18 05:14:51;;;;;;;0.38;0.38;;;24.50;63.00;;;;;;4160227;28;20049;-66
2022/06/18 05:17:21;;;;;;;0.03;0.03;;;24.50;63.10;;;;;;4159310;28;20091;-66
2022/06/18 05:19:45;;;;;;;0.03;0.03;;;24.50;63.10;;;;;;4174032;28;20095;-67
2022/06/18 05:22:07;;;;;;;0.15;0.15;;;24.50;63.10;;;;;;4161010;28;20049;-66
2022/06/18 05:24:29;;;;;;;0.43;0.43;;;24.50;63.10;;;;;;4161009;28;20131;-66
2022/06/18 05:26:55;;;;;;;0.00;0.00;;;24.60;63.10;;;;;;4190772;28;20095;-67
2022/06/18 05:29:18;;;;;;;0.13;0.13;;;24.60;62.80;;;;;;4192919;28;20143;-66
2022/06/18 05:31:41;;;;;;;0.00;0.00;;;24.70;62.80;;;;;;4193049;28;20080;-66
2022/06/18 05:34:05;;;;;;;0.00;0.00;;;24.70;62.50;;;;;;4192798;28;20063;-67
2022/06/18 05:36:27;;;;;;;0.17;0.17;;;24.70;62.50;;;;;;4192152;28;20048;-67
2022/06/18 05:38:53;;;;;;;9.07;2.35;;;24.80;62.40;;;;;;4192603;28;20041;-67
2022/06/18 05:41:15;;;;;;;0.00;0.00;;;24.80;62.40;;;;;;4206427;28;20051;-68
2022/06/18 05:43:37;;;;;;;0.65;0.65;;;24.80;62.40;;;;;;4193340;28;20044;-68
2022/06/18 05:45:59;;;;;;;0.75;0.75;;;24.80;62.30;;;;;;4191987;28;20045;-68
2022/06/18 05:48:21;;;;;;;4.38;1.90;;;24.90;62.30;;;;;;4191904;28;20054;-68
2022/06/18 05:50:45;;;;;;;1.05;0.98;;;24.90;62.30;;;;;;4192295;28;20139;-68
2022/06/18 05:53:08;;;;;;;0.20;0.20;;;24.90;62.40;;;;;;4192153;28;20052;-68
2022/06/18 05:55:51;;;;;;;0.50;0.50;;;24.90;62.40;;;;;;4193035;28;20044;-68
2022/06/18 05:58:51;;;;;;;0.10;0.10;;;24.80;62.40;;;;;;4157859;28;20049;-67
2022/06/18 06:01:20;;;;;;;0.10;0.10;;;24.80;62.50;;;;;;4144129;28;20046;-67
2022/06/18 06:03:42;;;;;;;0.00;0.00;;;24.80;62.60;;;;;;4135910;28;20120;-68
2022/06/18 06:06:06;;;;;;;0.08;0.08;;;24.80;62.70;;;;;;4175042;28;20559;-67
2022/06/18 06:08:32;;;;;;;0.20;0.20;;;24.80;62.80;;;;;;4192052;28;20045;-68
2022/06/18 06:13:48;;;;;;;0.00;0.00;;;24.80;62.90;;;;;;4125141;28;20113;-67
2022/06/18 06:16:11;;;;;;;0.98;0.55;;;24.80;63.10;;;;;;4111329;28;20126;-67
2022/06/18 06:18:33;;;;;;;1.50;1.40;;;24.80;63.10;;;;;;4151287;28;20072;-67
2022/06/18 06:20:58;;;;;;;0.05;0.05;;;24.80;63.00;;;;;;4193174;28;20067;-68
2022/06/18 06:23:21;;;;;;;0.75;0.75;;;24.80;63.00;;;;;;4193024;28;20083;-68
2022/06/18 06:25:44;;;;;;;1.38;0.68;;;24.80;63.00;;;;;;4192948;28;20055;-68
2022/06/18 06:28:09;;;;;;;0.75;0.75;;;24.80;62.90;;;;;;4160163;28;20055;-68
2022/06/18 06:30:31;;;;;;;0.55;0.55;;;24.80;62.90;;;;;;4158976;28;20510;-68
2022/06/18 06:32:54;;;;;;;0.10;0.10;;;24.90;62.80;;;;;;4160308;28;20134;-68
2022/06/18 06:35:17;;;;;;;0.05;0.05;;;24.90;62.80;;;;;;4160202;28;20128;-68
2022/06/18 06:37:39;;;;;;;0.08;0.08;;;24.90;62.70;;;;;;4192991;28;20071;-68
2022/06/18 06:40:02;;;;;;;0.57;0.57;;;24.90;62.70;;;;;;4192724;28;20129;-68
2022/06/18 06:42:24;;;;;;;1.38;1.27;;;24.90;62.60;;;;;;4191763;28;20055;-68
2022/06/18 06:44:48;;;;;;;0.47;0.47;;;25.00;62.40;;;;;;4191543;28;20057;-68
2022/06/18 06:47:11;;;;;;;0.55;0.55;;;25.00;62.20;;;;;;4192329;28;20553;-68
2022/06/18 06:49:33;;;;;;;0.50;0.50;;;25.00;62.10;;;;;;4192784;28;20111;-68
2022/06/18 06:51:55;;;;;;;0.20;0.20;;;25.10;62.10;;;;;;4193170;28;20553;-68
2022/06/18 06:54:17;;;;;;;0.15;0.15;;;25.10;61.90;;;;;;4192784;28;20048;-68
2022/06/18 06:59:20;;;;;;;0.00;0.00;;;25.20;61.80;;;;;;4192620;28;20041;-68
2022/06/18 07:01:42;;;;;;;0.15;0.15;;;25.30;61.60;;;;;;4192973;28;20052;-67
2022/06/18 07:04:05;;;;;;;0.05;0.05;;;25.30;62.40;;;;;;4192732;28;20383;-67
2022/06/18 07:06:27;;;;;;;0.00;0.00;;;25.40;61.30;;;;;;4191617;28;20106;-68
2022/06/18 07:08:50;;;;;;;0.20;0.20;;;25.40;61.20;;;;;;4159803;28;20057;-65
2022/06/18 07:11:13;;;;;;;1.83;1.02;;;25.50;61.10;;;;;;4159303;28;20057;-66
2022/06/18 07:13:37;;;;;;;0.00;0.00;;;25.50;60.90;;;;;;4160115;28;20154;-65
2022/06/18 07:15:59;;;;;;;0.32;0.32;;;25.50;60.80;;;;;;4168509;28;20048;-66
2022/06/18 07:18:24;;;;;;;0.10;0.10;;;25.60;61.70;;;;;;4192643;28;20633;-66
2022/06/18 07:20:46;;;;;;;0.00;0.00;;;25.60;61.60;;;;;;4192632;28;20052;-66
2022/06/18 07:23:08;;;;;;;5.68;2.67;;;25.60;61.30;;;;;;4193733;28;20458;-66
2022/06/18 07:25:29;;;;;;;0.20;0.20;;;25.60;61.50;;;;;;4195696;28;20045;-66
2022/06/18 07:27:53;;;;;;;0.10;0.10;;;25.70;62.50;;;;;;4162407;28;20124;-66
2022/06/18 07:30:16;;;;;;;7.22;1.08;;;25.70;63.00;;;;;;4162914;28;20048;-66
2022/06/18 07:32:45;;;;;;;0.63;0.63;;;25.70;63.40;;;;;;4162377;28;20073;-67
2022/06/18 07:35:07;;;;;;;20.77;2.78;;;25.70;63.80;;;;;;4162331;28;20107;-67
2022/06/18 07:37:29;;;;;;;0.10;0.10;;;25.80;64.20;;;;;;4194815;28;20165;-66
2022/06/18 07:39:53;;;;;;;0.00;0.00;;;25.70;64.40;;;;;;4194558;28;20048;-66
2022/06/18 07:42:18;;;;;;;6.18;1.50;;;25.70;64.80;;;;;;4195204;27;20036;-66
2022/06/18 07:44:40;;;;;;;0.47;0.47;;;25.80;64.90;;;;;;4195339;28;20484;-65
2022/06/18 07:47:04;;;;;;;0.00;0.00;;;25.80;64.80;;;;;;4195716;28;20527;-65
2022/06/18 07:49:26;;;;;;;0.52;0.52;;;25.80;64.90;;;;;;4220978;28;20108;-67
2022/06/18 07:51:48;;;;;;;1.10;1.10;;;25.80;65.00;;;;;;4195385;28;20059;-68
2022/06/18 07:54:13;;;;;;;0.10;0.10;;;25.80;64.70;;;;;;4193992;28;20105;-68
2022/06/18 07:56:35;;;;;;;16.98;1.10;;;25.80;64.60;;;;;;4195097;28;20059;-68
2022/06/18 07:58:57;;;;;;;0.25;0.25;;;25.80;64.70;;;;;;4195339;28;20123;-67
2022/06/18 08:01:19;;;;;;;0.00;0.00;;;25.80;64.70;;;;;;4195113;28;20043;-67
2022/06/18 08:03:42;;;;;;;3.83;2.13;;;25.80;64.40;;;;;;4193831;28;20055;-68
2022/06/18 08:06:05;;;;;;;0.25;0.25;;;25.80;64.50;;;;;;4194529;28;20106;-68
2022/06/18 08:08:27;;;;;;;0.00;0.00;;;25.80;64.50;;;;;;4194915;28;20419;-67
2022/06/18 08:10:57;;;;;;;0.32;0.32;;;25.80;64.10;;;;;;4194722;28;20540;-67
2022/06/18 08:13:20;;;;;;;0.00;0.00;;;25.80;63.70;;;;;;4194814;28;20690;-67
2022/06/18 08:15:43;;;;;;;0.22;0.22;;;25.80;63.60;;;;;;4194839;28;20056;-67
2022/06/18 08:18:06;;;;;;;0.00;0.00;;;25.80;63.90;;;;;;4194687;28;20139;-67
2022/06/18 08:20:49;;;;;;;0.80;0.80;;;25.80;63.90;;;;;;4194803;28;20483;-67
2022/06/18 08:23:11;;;;;;;0.17;0.17;;;25.80;63.80;;;;;;4194638;28;20051;-67
2022/06/18 08:25:36;;;;;;;0.73;0.70;;;25.80;63.70;;;;;;4194559;28;20090;-67
2022/06/18 08:28:02;;;;;;;0.00;0.00;;;25.80;63.60;;;;;;4194972;28;20447;-67
2022/06/18 08:30:24;;;;;;;1.75;0.50;;;25.80;63.40;;;;;;4193141;28;20232;-68
2022/06/18 08:32:47;;;;;;;0.00;0.00;;;25.90;63.30;;;;;;4194871;28;20062;-68
2022/06/18 08:35:09;;;;;;;0.00;0.00;;;25.90;63.20;;;;;;4194442;28;20109;-67
2022/06/18 08:37:34;;;;;;;0.15;0.15;;;25.90;63.10;;;;;;4194570;28;20135;-66
2022/06/18 08:39:56;;;;;;;0.25;0.25;;;25.90;63.10;;;;;;4194136;28;20483;-67
2022/06/18 08:42:35;;;;;;;0.10;0.10;;;25.90;63.30;;;;;;4194406;28;20040;-68
2022/06/18 08:45:07;;;;;;;0.05;0.05;;;25.90;63.00;;;;;;4194212;28;20498;-68
2022/06/18 08:47:58;;;;;;;0.00;0.00;;;25.90;63.00;;;;;;4194466;28;20041;-68
2022/06/18 08:50:32;;;;;;;0.10;0.10;;;25.90;63.00;;;;;;4193947;28;20045;-68
2022/06/18 08:53:09;;;;;;;0.03;0.03;;;26.00;63.00;;;;;;4192347;28;20082;-66
2022/06/18 08:55:39;;;;;;;0.08;0.08;;;26.00;62.80;;;;;;4193999;28;20080;-68
2022/06/18 08:58:06;;;;;;;3.72;0.95;;;26.00;62.80;;;;;;4192439;28;20759;-67
2022/06/18 09:00:34;;;;;;;0.63;0.30;;;26.00;62.70;;;;;;4193803;28;20098;-69
2022/06/18 09:03:02;;;;;;;0.00;0.00;;;26.00;62.60;;;;;;4193917;28;20048;-68
2022/06/18 09:05:52;;;;;;;0.20;0.20;;;26.00;62.90;;;;;;4193718;28;20519;-67
2022/06/18 09:08:36;;;;;;;0.43;0.43;;;26.10;62.90;;;;;;4193871;28;20044;-68
2022/06/18 09:11:19;;;;;;;0.28;0.28;;;26.10;62.90;;;;;;4194070;28;20051;-68
2022/06/18 09:13:46;;;;;;;7.65;1.13;;;26.10;62.80;;;;;;4193863;28;20052;-67
2022/06/18 09:16:11;;;;;;;0.55;0.55;;;26.10;62.80;;;;;;4193683;28;20742;-67
2022/06/18 09:18:37;;;;;;;0.00;0.00;;;26.10;62.80;;;;;;4194223;28;20407;-66
2022/06/18 09:21:03;;;;;;;0.00;0.00;;;26.10;62.70;;;;;;4193861;28;20475;-67
2022/06/18 09:23:31;;;;;;;0.10;0.10;;;26.10;62.60;;;;;;4192679;28;20462;-67
2022/06/18 09:25:56;;;;;;;0.00;0.00;;;26.10;62.50;;;;;;4194279;28;20045;-67
2022/06/18 09:28:25;;;;;;;0.00;0.00;;;26.10;62.40;;;;;;4193700;28;20044;-67
2022/06/18 09:30:53;;;;;;;0.00;0.00;;;26.10;62.40;;;;;;4193494;28;20044;-67
2022/06/18 09:33:20;;;;;;;0.32;0.32;;;26.10;62.40;;;;;;4193544;28;20475;-68
2022/06/18 09:35:47;;;;;;;0.10;0.10;;;26.10;62.40;;;;;;4193789;28;20075;-68
2022/06/18 09:38:15;;;;;;;0.00;0.00;;;26.10;62.20;;;;;;4191931;28;20098;-68
2022/06/18 09:40:44;;;;;;;0.00;0.00;;;26.10;62.20;;;;;;4193235;28;20064;-67
2022/06/18 09:43:15;;;;;;;0.10;0.10;;;26.20;62.20;;;;;;4193308;28;20041;-67
2022/06/18 09:45:44;;;;;;;0.00;0.00;;;26.20;62.10;;;;;;4192918;28;20484;-67
2022/06/18 09:48:06;;;;;;;0.00;0.00;;;26.20;62.00;;;;;;4193112;28;20060;-67
2022/06/18 09:50:33;;;;;;;0.17;0.17;;;26.20;61.90;;;;;;4193443;28;20403;-68
2022/06/18 09:53:02;;;;;;;0.00;0.00;;;26.20;61.60;;;;;;4193445;28;20055;-67
2022/06/18 09:55:34;;;;;;;0.00;0.00;;;26.30;62.20;;;;;;4192135;28;20047;-68
2022/06/18 09:58:01;;;;;;;0.03;0.03;;;26.30;62.40;;;;;;4193010;28;20044;-68
2022/06/18 10:00:28;;;;;;;0.00;0.00;;;26.30;62.60;;;;;;4193490;28;20040;-67
2022/06/18 10:02:56;;;;;;;0.00;0.00;;;26.40;62.30;;;;;;4192092;28;20059;-67
2022/06/18 10:08:04;;;;;;;0.00;0.00;;;26.40;61.90;;;;;;4166654;28;20048;-67
2022/06/18 10:10:29;;;;;;;0.00;0.00;;;26.40;61.80;;;;;;4176590;28;20068;-68
2022/06/18 10:12:54;;;;;;;0.47;0.47;;;26.40;61.60;;;;;;4176669;28;20045;-66
2022/06/18 10:15:19;;;;;;;0.20;0.20;;;26.40;61.50;;;;;;4176214;28;20090;-67
2022/06/18 10:17:56;;;;;;;0.00;0.00;;;26.40;61.40;;;;;;4176994;28;20048;-67
2022/06/18 10:20:27;;;;;;;0.00;0.00;;;26.40;61.40;;;;;;4176518;28;20045;-67
2022/06/18 10:23:13;;;;;;;0.00;0.00;;;26.40;61.20;;;;;;4176131;28;20056;-68
2022/06/18 10:25:41;;;;;;;0.00;0.00;;;26.40;61.20;;;;;;4176481;28;20051;-61
2022/06/18 10:28:13;;;;;;;0.10;0.10;;;26.40;61.10;;;;;;4157844;28;20057;-68
2022/06/18 10:30:45;;;;;;;0.00;0.00;;;26.40;61.00;;;;;;4169013;28;20075;-68
2022/06/18 10:33:22;;;;;;;0.13;0.13;;;26.40;61.00;;;;;;4170844;28;20052;-68
2022/06/18 10:35:52;;;;;;;0.25;0.25;;;26.40;60.90;;;;;;4190100;28;20051;-68
2022/06/18 10:38:36;;;;;;;0.00;0.00;;;26.40;60.90;;;;;;4162870;28;20060;-68
2022/06/18 10:41:07;;;;;;;0.00;0.00;;;26.40;60.80;;;;;;4184511;28;20135;-69
2022/06/18 10:43:49;;;;;;;;;;;26.40;61.60;;;;;;4163540;28;20992;-69
2022/06/18 10:46:16;;;;;;;0.00;0.00;;;26.40;60.70;;;;;;4173204;28;19930;-68
2022/06/18 10:48:45;;;;;;;0.00;0.00;;;26.50;60.70;;;;;;4170329;28;20507;-68
2022/06/18 10:51:16;;;;;;;0.00;0.00;;;26.50;60.40;;;;;;4171805;28;20049;-69
2022/06/18 10:53:48;;;;;;;0.00;0.00;;;26.40;60.30;;;;;;4169503;28;20040;-68
2022/06/18 10:56:16;;;;;;;0.00;0.00;;;26.50;60.40;;;;;;4168609;28;20049;-69
2022/06/18 10:58:48;;;;;;;0.00;0.00;;;26.50;61.30;;;;;;4161514;28;20410;-68
2022/06/18 11:01:16;;;;;;;0.00;0.00;;;26.50;60.40;;;;;;4158853;28;20551;-68
2022/06/18 11:03:38;;;;;;;0.00;0.00;;;26.50;61.20;;;;;;4165388;28;20045;-68
2022/06/18 11:06:04;;;;;;;0.00;0.00;;;26.60;60.30;;;;;;4165019;28;20049;-68
2022/06/18 11:08:29;;;;;;;0.10;0.10;;;26.50;60.20;;;;;;4165472;28;20132;-68
2022/06/18 11:10:55;;;;;;;0.00;0.00;;;26.60;60.10;;;;;;4162885;28;20132;-68
2022/06/18 11:13:21;;;;;;;0.00;0.00;;;26.60;60.00;;;;;;4161742;28;20128;-67
2022/06/18 11:15:43;;;;;;;0.00;0.00;;;26.50;59.90;;;;;;4177293;28;20558;-68
2022/06/18 11:18:18;;;;;;;0.00;0.00;;;26.60;59.90;;;;;;4175534;28;20048;-67
2022/06/18 11:20:41;;;;;;;0.00;0.00;;;26.60;59.90;;;;;;4168030;28;20444;-67
2022/06/18 11:23:14;;;;;;;0.00;0.00;;;26.60;59.80;;;;;;4167012;28;20049;-68
2022/06/18 11:25:49;;;;;;;0.20;0.20;;;26.60;59.90;;;;;;4171777;28;20051;-67
2022/06/18 11:28:15;;;;;;;0.00;0.00;;;26.60;59.70;;;;;;4172460;28;20076;-67
2022/06/18 11:30:43;;;;;;;0.00;0.00;;;26.60;60.80;;;;;;4158813;28;20052;-68
2022/06/18 11:33:07;;;;;;;0.00;0.00;;;26.60;59.80;;;;;;4199198;28;20052;-68
2022/06/18 11:35:33;;;;;;;0.00;0.00;;;26.50;59.80;;;;;;4183993;28;20052;-68
2022/06/18 11:37:59;;;;;;;0.00;0.00;;;26.50;59.80;;;;;;4157194;28;20473;-67
2022/06/18 11:40:22;;;;;;;0.00;0.00;;;26.60;59.90;;;;;;4157015;28;20136;-67
2022/06/18 11:42:49;;;;;;;0.00;0.00;;;26.50;59.80;;;;;;4169332;28;20444;-67
2022/06/18 11:45:26;;;;;;;0.05;0.05;;;26.60;59.80;;;;;;4156903;28;20407;-67
2022/06/18 11:47:57;;;;;;;0.20;0.20;;;26.50;59.80;;;;;;4162608;28;20144;-68
2022/06/18 11:50:25;;;;;;;0.00;0.00;;;26.60;59.80;;;;;;4157099;28;20408;-68
2022/06/18 11:52:57;;;;;;;0.10;0.10;;;26.60;59.80;;;;;;4156864;28;20049;-68
2022/06/18 11:55:25;;;;;;;0.00;0.00;;;26.50;59.90;;;;;;4158945;28;20076;-69
2022/06/18 11:57:54;;;;;;;0.00;0.00;;;26.50;59.90;;;;;;4172481;28;20110;-68
2022/06/18 12:00:29;;;;;;;0.00;0.00;;;26.50;60.00;;;;;;4163561;28;20060;-68
2022/06/18 12:03:00;;;;;;;0.00;0.00;;;26.60;60.00;;;;;;4171273;28;20053;-69
2022/06/18 12:05:29;;;;;;;0.00;0.00;;;26.50;59.90;;;;;;4169168;28;20116;-67
2022/06/18 12:07:57;;;;;;;0.10;0.10;;;26.60;59.90;;;;;;4172503;28;20625;-68
2022/06/18 12:10:25;;;;;;;0.00;0.00;;;26.50;60.50;;;;;;4175467;28;20110;-68
2022/06/18 12:12:55;;;;;;;0.00;0.00;;;26.60;59.90;;;;;;4193785;28;20047;-68
2022/06/18 12:15:26;;;;;;;0.00;0.00;;;26.50;59.70;;;;;;4186777;28;20044;-68
2022/06/18 12:17:54;;;;;;;0.00;0.00;;;26.50;59.60;;;;;;4166604;28;20052;-68
2022/06/18 12:20:40;;;;;;;0.00;0.00;;;26.50;59.60;;;;;;4167222;28;20075;-68
2022/06/18 12:23:12;;;;;;;0.00;0.00;;;26.60;59.80;;;;;;4175944;28;20527;-68
2022/06/18 12:25:42;;;;;;;0.00;0.00;;;26.50;59.70;;;;;;4170969;28;20053;-68
2022/06/18 12:28:22;;;;;;;0.10;0.10;;;26.50;59.30;;;;;;4164183;28;20164;-68
2022/06/18 12:30:49;;;;;;;0.00;0.00;;;26.50;59.10;;;;;;4159200;28;20053;-68
2022/06/18 12:33:21;;;;;;;0.00;0.00;;;26.50;58.90;;;;;;4163146;28;20076;-68
2022/06/18 12:35:49;;;;;;;0.00;0.00;;;26.50;58.80;;;;;;4175892;28;20056;-68
2022/06/18 12:38:22;;;;;;;0.00;0.00;;;26.50;58.50;;;;;;4173519;28;20038;-68
2022/06/18 12:40:51;;;;;;;0.00;0.00;;;26.60;58.50;;;;;;4159289;28;20045;-68
2022/06/18 12:43:22;;;;;;;2.20;0.90;;;26.60;58.90;;;;;;4159885;28;20412;-68
2022/06/18 12:45:54;;;;;;;0.00;0.00;;;26.60;58.70;;;;;;4159812;28;20770;-66
2022/06/18 12:48:26;;;;;;;0.00;0.00;;;26.60;58.50;;;;;;4168668;28;20595;-66
2022/06/18 12:50:58;;;;;;;0.00;0.00;;;26.60;58.60;;;;;;4168780;28;20056;-65
2022/06/18 12:53:35;;;;;;;0.00;0.00;;;26.60;58.60;;;;;;4169419;28;20429;-66
2022/06/18 12:56:04;;;;;;;0.00;0.00;;;26.60;59.20;;;;;;4166707;28;20549;-67
2022/06/18 12:58:36;;;;;;;0.00;0.00;;;26.60;58.70;;;;;;4158815;28;20053;-66
2022/06/18 13:01:03;;;;;;;0.00;0.00;;;26.60;58.30;;;;;;4171344;28;20087;-67
2022/06/18 13:03:42;;;;;;;0.30;0.30;;;26.60;58.10;;;;;;4159087;28;20052;-67